createdAt,value
2022-09-24T00:04:52.611Z,62.40
2022-09-24T00:09:55.394Z,62.13
2022-09-24T00:14:58.234Z,62.24
2022-09-24T00:20:01.370Z,62.13
2022-09-24T00:25:23.405Z,61.98
2022-09-24T00:30:26.329Z,61.93
2022-09-24T00:35:32.203Z,61.81
2022-09-24T00:40:37.303Z,62.10
2022-09-24T00:45:42.614Z,61.99
2022-09-24T00:50:46.044Z,61.87
2022-09-24T00:55:54.718Z,62.01
2022-09-24T01:01:04.459Z,62.25
2022-09-24T01:06:09.447Z,62.34
2022-09-24T01:11:40.781Z,62.40
2022-09-24T01:17:00.202Z,62.36
2022-09-24T01:22:30.601Z,62.36
2022-09-24T01:28:00.354Z,62.48
2022-09-24T01:33:08.298Z,62.11
2022-09-24T01:38:21.554Z,62.14
2022-09-24T01:43:27.206Z,62.09
2022-09-24T01:48:30.564Z,62.05
2022-09-24T01:53:44.958Z,62.02
2022-09-24T01:58:49.240Z,62.06
2022-09-24T02:03:57.804Z,62.25
2022-09-24T02:09:00.829Z,62.24
2022-09-24T02:14:09.671Z,62.21
2022-09-24T02:19:17.472Z,62.32
2022-09-24T02:24:29.677Z,62.26
2022-09-24T02:29:32.503Z,62.31
2022-09-24T02:34:47.248Z,62.61
2022-09-24T02:39:50.916Z,62.26
2022-09-24T02:44:57.474Z,62.41
2022-09-24T02:50:00.672Z,62.39
2022-09-24T02:55:05.125Z,62.28
2022-09-24T03:00:08.967Z,62.28
2022-09-24T03:05:12.657Z,62.43
2022-09-24T03:10:15.509Z,62.36
2022-09-24T03:15:18.308Z,62.28
2022-09-24T03:20:21.749Z,62.14
2022-09-24T03:25:25.872Z,62.57
2022-09-24T03:30:47.025Z,62.54
2022-09-24T03:35:49.843Z,62.43
2022-09-24T03:40:53.256Z,62.40
2022-09-24T03:45:56.191Z,62.18
2022-09-24T03:51:14.138Z,62.26
2022-09-24T03:56:17.090Z,62.17
2022-09-24T04:01:22.020Z,62.50
2022-09-24T04:06:27.135Z,62.34
2022-09-24T04:11:29.941Z,62.39
2022-09-24T04:16:33.029Z,62.50
2022-09-24T04:21:36.217Z,62.58
2022-09-24T04:26:39.121Z,62.46
2022-09-24T04:31:42.033Z,62.86
2022-09-24T04:36:44.878Z,62.95
2022-09-24T04:41:48.040Z,62.75
2022-09-24T04:46:50.927Z,62.92
2022-09-24T04:51:53.709Z,62.84
2022-09-24T04:56:56.569Z,63.01
2022-09-24T05:01:59.520Z,63.07
2022-09-24T05:07:02.398Z,63.13
2022-09-24T05:12:05.937Z,63.23
2022-09-24T05:17:08.696Z,63.28
2022-09-24T05:22:11.725Z,63.36
2022-09-24T05:27:14.502Z,63.60
2022-09-24T05:32:19.965Z,63.74
2022-09-24T05:37:22.796Z,63.58
2022-09-24T05:42:25.757Z,63.36
2022-09-24T05:47:28.641Z,63.47
2022-09-24T05:52:31.529Z,63.58
2022-09-24T05:57:34.552Z,63.63
2022-09-24T06:02:37.480Z,63.80
2022-09-24T06:07:40.352Z,63.98
2022-09-24T06:12:44.051Z,64.18
2022-09-24T06:17:47.234Z,64.17
2022-09-24T06:22:50.698Z,64.37
2022-09-24T06:28:00.461Z,64.70
2022-09-24T06:33:14.039Z,64.86
2022-09-24T06:38:18.527Z,64.54
2022-09-24T06:43:21.438Z,64.53
2022-09-24T06:48:25.022Z,64.68
2022-09-24T06:53:27.993Z,64.33
2022-09-24T06:58:31.084Z,64.18
2022-09-24T07:03:34.640Z,64.42
2022-09-24T07:08:38.295Z,63.90
2022-09-24T07:13:41.170Z,63.61
2022-09-24T07:18:44.044Z,63.27
2022-09-24T07:23:47.490Z,63.71
2022-09-24T07:28:50.342Z,63.21
2022-09-24T07:33:53.603Z,63.75
2022-09-24T07:38:56.523Z,63.51
2022-09-24T07:43:59.346Z,63.53
2022-09-24T07:49:02.393Z,63.48
2022-09-24T07:54:06.450Z,63.10
2022-09-24T07:59:11.332Z,62.88
2022-09-24T08:04:14.337Z,62.71
2022-09-24T08:09:17.375Z,62.47
2022-09-24T08:14:20.498Z,62.35
2022-09-24T08:19:23.377Z,62.30
2022-09-24T08:24:26.355Z,62.00
2022-09-24T08:29:29.142Z,61.25
2022-09-24T08:34:38.416Z,61.11
2022-09-24T08:39:41.271Z,60.65
2022-09-24T08:45:04.618Z,60.22
2022-09-24T08:50:17.550Z,59.86
2022-09-24T08:55:25.920Z,59.44
2022-09-24T09:00:36.426Z,58.77
2022-09-24T09:05:49.636Z,58.21
2022-09-24T09:10:58.695Z,58.20
2022-09-24T09:16:07.116Z,57.86
2022-09-24T09:21:24.595Z,57.46
2022-09-24T09:26:28.019Z,57.05
2022-09-24T09:31:40.044Z,56.60
2022-09-24T09:37:14.048Z,56.25
2022-09-24T09:42:36.495Z,56.12
2022-09-24T09:47:51.016Z,56.11
2022-09-24T09:52:54.892Z,55.85
2022-09-24T09:58:16.092Z,55.15
2022-09-24T10:03:26.376Z,55.07
2022-09-24T10:08:30.205Z,54.19
2022-09-24T10:13:33.675Z,53.79
2022-09-24T10:18:43.542Z,54.04
2022-09-24T10:23:50.311Z,53.83
2022-09-24T10:29:12.020Z,53.57
2022-09-24T10:34:29.055Z,55.47
2022-09-24T10:39:31.972Z,58.35
2022-09-24T10:44:37.228Z,57.58
2022-09-24T10:50:01.418Z,56.63
2022-09-24T10:55:15.210Z,55.42
2022-09-24T11:00:28.611Z,56.06
2022-09-24T11:05:57.265Z,54.72
2022-09-24T11:11:09.729Z,53.45
2022-09-24T11:16:39.141Z,53.78
2022-09-24T11:22:38.927Z,52.30
2022-09-24T11:28:01.307Z,54.81
2022-09-24T11:33:26.349Z,53.89
2022-09-24T11:39:04.801Z,52.83
2022-09-24T11:44:28.722Z,52.76
2022-09-24T11:50:11.246Z,51.76
2022-09-24T11:55:22.181Z,51.03
2022-09-24T12:00:32.515Z,50.54
2022-09-24T12:05:39.624Z,50.76
2022-09-24T12:10:51.520Z,52.33
2022-09-24T12:16:03.667Z,52.46
2022-09-24T12:21:13.233Z,52.29
2022-09-24T12:26:17.854Z,52.31
2022-09-24T12:31:47.104Z,51.54
2022-09-24T12:37:11.761Z,50.70
2022-09-24T12:42:17.296Z,50.08
2022-09-24T12:47:25.912Z,49.41
2022-09-24T12:52:36.600Z,49.11
2022-09-24T12:57:42.705Z,48.96
2022-09-24T13:02:47.864Z,49.31
2022-09-24T13:08:24.834Z,49.35
2022-09-24T13:13:30.890Z,47.94
2022-09-24T13:18:36.115Z,47.15
2022-09-24T13:23:49.754Z,47.43
2022-09-24T13:29:01.622Z,47.58
2022-09-24T13:34:10.453Z,47.66
2022-09-24T13:39:34.703Z,47.28
2022-09-24T13:44:43.887Z,47.20
2022-09-24T13:49:50.378Z,46.35
2022-09-24T13:54:57.214Z,46.11
2022-09-24T14:00:16.415Z,46.89
2022-09-24T14:05:20.067Z,47.20
2022-09-24T14:10:25.295Z,46.71
2022-09-24T14:15:28.309Z,46.47
2022-09-24T14:20:35.441Z,46.27
2022-09-24T14:25:39.923Z,45.73
2022-09-24T14:30:55.328Z,47.10
2022-09-24T14:35:59.480Z,47.88
2022-09-24T14:41:25.163Z,45.66
2022-09-24T14:46:48.836Z,44.66
2022-09-24T14:51:55.303Z,44.36
2022-09-24T14:57:10.974Z,44.44
2022-09-24T15:02:19.920Z,44.85
2022-09-24T15:07:30.121Z,44.84
2022-09-24T15:12:36.624Z,45.01
2022-09-24T15:17:39.618Z,44.96
2022-09-24T15:22:42.606Z,45.18
2022-09-24T15:27:45.862Z,45.52
2022-09-24T15:32:50.175Z,45.57
2022-09-24T15:37:53.142Z,45.91
2022-09-24T15:42:56.185Z,46.35
2022-09-24T15:47:59.155Z,46.56
2022-09-24T15:53:02.593Z,46.58
2022-09-24T15:58:15.812Z,46.87
2022-09-24T16:03:30.254Z,46.68
2022-09-24T16:08:33.171Z,46.86
2022-09-24T16:13:36.266Z,47.12
2022-09-24T16:18:40.833Z,47.40
2022-09-24T16:23:43.839Z,47.66
2022-09-24T16:28:47.614Z,48.03
2022-09-24T16:33:50.542Z,48.14
2022-09-24T16:38:53.387Z,48.15
2022-09-24T16:43:57.010Z,48.70
2022-09-24T16:48:59.945Z,49.20
2022-09-24T16:54:03.081Z,49.42
2022-09-24T16:59:06.230Z,49.71
2022-09-24T17:04:09.806Z,50.11
2022-09-24T17:09:31.610Z,50.64
2022-09-24T17:14:37.624Z,50.81
2022-09-24T17:19:40.588Z,51.15
2022-09-24T17:24:43.793Z,51.44
2022-09-24T17:29:47.920Z,51.65
2022-09-24T17:34:50.896Z,52.01
2022-09-24T17:39:53.709Z,52.28
2022-09-24T17:44:56.585Z,52.62
2022-09-24T17:50:00.151Z,53.02
2022-09-24T17:55:08.485Z,53.43
2022-09-24T18:00:11.742Z,55.25
2022-09-24T18:05:14.846Z,55.32
2022-09-24T18:10:20.365Z,54.17
2022-09-24T18:15:23.168Z,53.97
2022-09-24T18:20:26.386Z,54.11
2022-09-24T18:25:29.418Z,54.48
2022-09-24T18:30:32.793Z,54.64
2022-09-24T18:35:35.665Z,54.98
2022-09-24T18:40:38.712Z,55.29
2022-09-24T18:45:41.809Z,55.50
2022-09-24T18:50:45.203Z,55.59
2022-09-24T18:55:48.091Z,55.99
2022-09-24T19:00:51.421Z,56.04
2022-09-24T19:05:56.453Z,56.34
2022-09-24T19:11:14.473Z,56.51
2022-09-24T19:16:19.619Z,56.74
2022-09-24T19:21:26.037Z,57.00
2022-09-24T19:26:32.290Z,57.26
2022-09-24T19:31:38.222Z,57.36
2022-09-24T19:36:44.928Z,57.56
2022-09-24T19:41:53.086Z,57.87
2022-09-24T19:46:56.166Z,57.91
2022-09-24T19:51:58.970Z,58.05
2022-09-24T19:57:01.870Z,58.07
2022-09-24T20:02:04.888Z,58.26
2022-09-24T20:07:08.277Z,58.52
2022-09-24T20:12:17.070Z,58.71
2022-09-24T20:17:19.902Z,58.91
2022-09-24T20:22:23.247Z,59.02
2022-09-24T20:27:44.873Z,59.23
2022-09-24T20:32:48.422Z,59.47
2022-09-24T20:37:51.458Z,59.54
2022-09-24T20:42:54.280Z,59.66
2022-09-24T20:47:57.388Z,59.77
2022-09-24T20:53:00.260Z,59.83
2022-09-24T20:58:03.305Z,59.92
2022-09-24T21:03:25.669Z,60.02
2022-09-24T21:08:37.662Z,59.89
2022-09-24T21:13:43.903Z,59.97
2022-09-24T21:18:47.802Z,60.04
2022-09-24T21:23:53.568Z,59.99
2022-09-24T21:29:01.121Z,60.49
2022-09-24T21:34:06.931Z,60.36
2022-09-24T21:39:23.194Z,60.58
2022-09-24T21:44:26.275Z,60.48
2022-09-24T21:49:29.826Z,60.40
2022-09-24T21:54:35.959Z,60.54
2022-09-24T21:59:57.373Z,60.35
2022-09-24T22:05:01.682Z,60.51
2022-09-24T22:10:05.529Z,60.37
2022-09-24T22:15:08.547Z,60.44
2022-09-24T22:20:11.409Z,60.77
2022-09-24T22:25:14.365Z,60.73
2022-09-24T22:30:17.427Z,60.70
2022-09-24T22:35:43.250Z,61.25
2022-09-24T22:40:46.566Z,61.09
2022-09-24T22:45:49.456Z,60.82
2022-09-24T22:50:52.971Z,61.39
2022-09-24T22:56:06.186Z,61.12
2022-09-24T23:01:21.699Z,61.28
2022-09-24T23:06:24.871Z,61.31
2022-09-24T23:11:33.389Z,61.40
2022-09-24T23:16:37.695Z,61.43
2022-09-24T23:21:41.670Z,61.58
2022-09-24T23:26:45.098Z,61.51
2022-09-24T23:31:48.313Z,61.53
2022-09-24T23:36:51.104Z,61.87
2022-09-24T23:41:54.061Z,61.54
2022-09-24T23:46:57.665Z,61.63
2022-09-24T23:52:00.677Z,61.58
2022-09-24T23:57:06.959Z,61.69
